sensor_id;sensor_type;location;lat;lon;timestamp;P1;durP1;ratioP1;P2;durP2;ratioP2
53108;SDS011;39007;53.090;6.074;2022-09-09T00:01:03;13.23;;;6.32;;
53108;SDS011;39007;53.090;6.074;2022-09-09T00:04:17;12.13;;;6.03;;
53108;SDS011;39007;53.090;6.074;2022-09-09T00:06:24;10.85;;;6.15;;
53108;SDS011;39007;53.090;6.074;2022-09-09T00:11:56;11.63;;;5.55;;
53108;SDS011;39007;53.090;6.074;2022-09-09T00:17:09;10.18;;;6.18;;
53108;SDS011;39007;53.090;6.074;2022-09-09T00:19:45;9.45;;;5.78;;
53108;SDS011;39007;53.090;6.074;2022-09-09T00:22:20;13.52;;;6.43;;
53108;SDS011;39007;53.090;6.074;2022-09-09T00:24:48;12.82;;;6.68;;
53108;SDS011;39007;53.090;6.074;2022-09-09T00:27:32;13.52;;;6.55;;
53108;SDS011;39007;53.090;6.074;2022-09-09T00:32:37;13.05;;;6.82;;
53108;SDS011;39007;53.090;6.074;2022-09-09T00:37:37;14.52;;;6.70;;
53108;SDS011;39007;53.090;6.074;2022-09-09T00:40:11;10.05;;;5.70;;
53108;SDS011;39007;53.090;6.074;2022-09-09T00:42:42;16.25;;;6.20;;
53108;SDS011;39007;53.090;6.074;2022-09-09T00:47:45;11.52;;;6.50;;
53108;SDS011;39007;53.090;6.074;2022-09-09T00:50:46;9.43;;;6.00;;
53108;SDS011;39007;53.090;6.074;2022-09-09T00:58:16;10.70;;;5.65;;
53108;SDS011;39007;53.090;6.074;2022-09-09T01:00:46;11.85;;;6.53;;
53108;SDS011;39007;53.090;6.074;2022-09-09T01:03:18;11.60;;;5.93;;
53108;SDS011;39007;53.090;6.074;2022-09-09T01:06:04;8.80;;;5.60;;
53108;SDS011;39007;53.090;6.074;2022-09-09T01:10:58;10.85;;;5.90;;
53108;SDS011;39007;53.090;6.074;2022-09-09T01:13:26;9.73;;;5.78;;
53108;SDS011;39007;53.090;6.074;2022-09-09T01:15:55;7.15;;;5.25;;
53108;SDS011;39007;53.090;6.074;2022-09-09T01:18:23;7.88;;;5.10;;
53108;SDS011;39007;53.090;6.074;2022-09-09T01:24:04;9.85;;;5.18;;
53108;SDS011;39007;53.090;6.074;2022-09-09T01:26:39;9.38;;;5.60;;
53108;SDS011;39007;53.090;6.074;2022-09-09T01:29:11;8.68;;;4.88;;
53108;SDS011;39007;53.090;6.074;2022-09-09T01:31:39;8.18;;;4.75;;
53108;SDS011;39007;53.090;6.074;2022-09-09T01:34:12;8.48;;;4.43;;
53108;SDS011;39007;53.090;6.074;2022-09-09T01:36:41;8.15;;;4.63;;
53108;SDS011;39007;53.090;6.074;2022-09-09T01:39:08;10.70;;;4.75;;
53108;SDS011;39007;53.090;6.074;2022-09-09T01:41:35;8.93;;;4.75;;
53108;SDS011;39007;53.090;6.074;2022-09-09T01:44:01;8.23;;;5.10;;
53108;SDS011;39007;53.090;6.074;2022-09-09T01:46:27;9.45;;;4.80;;
53108;SDS011;39007;53.090;6.074;2022-09-09T01:48:54;11.68;;;5.30;;
53108;SDS011;39007;53.090;6.074;2022-09-09T01:51:21;8.15;;;4.68;;
53108;SDS011;39007;53.090;6.074;2022-09-09T01:53:47;8.43;;;5.32;;
53108;SDS011;39007;53.090;6.074;2022-09-09T02:03:35;10.32;;;5.97;;
53108;SDS011;39007;53.090;6.074;2022-09-09T02:08:57;9.48;;;5.72;;
53108;SDS011;39007;53.090;6.074;2022-09-09T02:11:25;10.35;;;5.78;;
53108;SDS011;39007;53.090;6.074;2022-09-09T02:13:53;9.77;;;5.93;;
53108;SDS011;39007;53.090;6.074;2022-09-09T02:21:13;10.52;;;5.95;;
53108;SDS011;39007;53.090;6.074;2022-09-09T02:23:39;8.88;;;6.20;;
53108;SDS011;39007;53.090;6.074;2022-09-09T02:26:06;12.02;;;6.65;;
53108;SDS011;39007;53.090;6.074;2022-09-09T02:28:33;10.60;;;5.95;;
53108;SDS011;39007;53.090;6.074;2022-09-09T02:31:00;13.95;;;6.32;;
53108;SDS011;39007;53.090;6.074;2022-09-09T02:33:28;10.88;;;6.57;;
53108;SDS011;39007;53.090;6.074;2022-09-09T02:35:55;11.80;;;6.72;;
53108;SDS011;39007;53.090;6.074;2022-09-09T02:38:27;12.60;;;6.15;;
53108;SDS011;39007;53.090;6.074;2022-09-09T02:40:54;11.50;;;6.85;;
53108;SDS011;39007;53.090;6.074;2022-09-09T02:43:20;10.50;;;6.60;;
53108;SDS011;39007;53.090;6.074;2022-09-09T02:48:36;10.02;;;7.40;;
53108;SDS011;39007;53.090;6.074;2022-09-09T02:51:10;11.85;;;7.50;;
53108;SDS011;39007;53.090;6.074;2022-09-09T02:53:43;10.80;;;6.63;;
53108;SDS011;39007;53.090;6.074;2022-09-09T02:56:14;11.57;;;7.00;;
53108;SDS011;39007;53.090;6.074;2022-09-09T02:58:41;10.32;;;6.30;;
53108;SDS011;39007;53.090;6.074;2022-09-09T03:01:07;13.15;;;7.45;;
53108;SDS011;39007;53.090;6.074;2022-09-09T03:03:33;12.80;;;7.88;;
53108;SDS011;39007;53.090;6.074;2022-09-09T03:06:00;9.23;;;7.18;;
53108;SDS011;39007;53.090;6.074;2022-09-09T03:08:26;12.50;;;7.78;;
53108;SDS011;39007;53.090;6.074;2022-09-09T03:10:54;12.10;;;7.97;;
53108;SDS011;39007;53.090;6.074;2022-09-09T03:13:20;17.23;;;8.07;;
53108;SDS011;39007;53.090;6.074;2022-09-09T03:15:47;11.43;;;7.78;;
53108;SDS011;39007;53.090;6.074;2022-09-09T03:18:13;10.73;;;7.82;;
53108;SDS011;39007;53.090;6.074;2022-09-09T03:20:40;12.23;;;7.75;;
53108;SDS011;39007;53.090;6.074;2022-09-09T03:23:07;11.63;;;7.90;;
53108;SDS011;39007;53.090;6.074;2022-09-09T03:25:33;13.48;;;7.72;;
53108;SDS011;39007;53.090;6.074;2022-09-09T03:28:01;11.38;;;7.13;;
53108;SDS011;39007;53.090;6.074;2022-09-09T03:30:27;13.10;;;7.97;;
53108;SDS011;39007;53.090;6.074;2022-09-09T03:32:54;11.32;;;8.70;;
53108;SDS011;39007;53.090;6.074;2022-09-09T03:35:20;11.25;;;8.68;;
53108;SDS011;39007;53.090;6.074;2022-09-09T03:37:46;11.98;;;7.90;;
53108;SDS011;39007;53.090;6.074;2022-09-09T03:40:12;12.38;;;8.13;;
53108;SDS011;39007;53.090;6.074;2022-09-09T03:42:39;11.98;;;8.30;;
53108;SDS011;39007;53.090;6.074;2022-09-09T03:45:09;15.50;;;8.93;;
53108;SDS011;39007;53.090;6.074;2022-09-09T03:47:35;11.68;;;7.97;;
53108;SDS011;39007;53.090;6.074;2022-09-09T03:50:02;12.23;;;9.05;;
53108;SDS011;39007;53.090;6.074;2022-09-09T03:52:29;13.65;;;8.77;;
53108;SDS011;39007;53.090;6.074;2022-09-09T03:54:55;12.60;;;8.68;;
53108;SDS011;39007;53.090;6.074;2022-09-09T03:57:21;12.02;;;8.25;;
53108;SDS011;39007;53.090;6.074;2022-09-09T03:59:48;12.05;;;9.07;;
53108;SDS011;39007;53.090;6.074;2022-09-09T04:02:14;11.57;;;8.52;;
53108;SDS011;39007;53.090;6.074;2022-09-09T04:04:40;13.65;;;8.15;;
53108;SDS011;39007;53.090;6.074;2022-09-09T04:07:06;13.02;;;8.75;;
53108;SDS011;39007;53.090;6.074;2022-09-09T04:09:32;13.68;;;8.27;;
53108;SDS011;39007;53.090;6.074;2022-09-09T04:11:59;11.93;;;9.02;;
53108;SDS011;39007;53.090;6.074;2022-09-09T04:14:25;11.18;;;8.48;;
53108;SDS011;39007;53.090;6.074;2022-09-09T04:16:53;12.23;;;8.73;;
53108;SDS011;39007;53.090;6.074;2022-09-09T04:19:21;13.32;;;8.50;;
53108;SDS011;39007;53.090;6.074;2022-09-09T04:21:47;11.95;;;8.60;;
53108;SDS011;39007;53.090;6.074;2022-09-09T04:24:16;12.93;;;8.60;;
53108;SDS011;39007;53.090;6.074;2022-09-09T04:26:43;15.80;;;8.95;;
53108;SDS011;39007;53.090;6.074;2022-09-09T04:29:10;11.55;;;8.27;;
53108;SDS011;39007;53.090;6.074;2022-09-09T04:31:36;13.00;;;8.70;;
53108;SDS011;39007;53.090;6.074;2022-09-09T04:34:06;11.60;;;7.60;;
53108;SDS011;39007;53.090;6.074;2022-09-09T04:36:33;11.73;;;7.65;;
53108;SDS011;39007;53.090;6.074;2022-09-09T04:38:59;16.38;;;8.70;;
53108;SDS011;39007;53.090;6.074;2022-09-09T04:41:26;11.77;;;8.15;;
53108;SDS011;39007;53.090;6.074;2022-09-09T04:43:52;10.60;;;7.88;;
53108;SDS011;39007;53.090;6.074;2022-09-09T04:46:19;13.38;;;8.45;;
53108;SDS011;39007;53.090;6.074;2022-09-09T04:48:46;12.98;;;8.38;;
53108;SDS011;39007;53.090;6.074;2022-09-09T04:51:13;12.57;;;7.90;;
53108;SDS011;39007;53.090;6.074;2022-09-09T04:53:39;10.77;;;8.30;;
53108;SDS011;39007;53.090;6.074;2022-09-09T04:58:32;13.07;;;9.52;;
53108;SDS011;39007;53.090;6.074;2022-09-09T05:01:18;13.10;;;8.90;;
53108;SDS011;39007;53.090;6.074;2022-09-09T05:03:44;14.25;;;9.43;;
53108;SDS011;39007;53.090;6.074;2022-09-09T05:06:11;11.65;;;9.07;;
53108;SDS011;39007;53.090;6.074;2022-09-09T05:08:38;13.15;;;10.88;;
53108;SDS011;39007;53.090;6.074;2022-09-09T05:11:17;15.95;;;10.73;;
53108;SDS011;39007;53.090;6.074;2022-09-09T05:13:44;13.98;;;10.52;;
53108;SDS011;39007;53.090;6.074;2022-09-09T05:16:10;14.02;;;10.95;;
53108;SDS011;39007;53.090;6.074;2022-09-09T05:18:40;14.30;;;10.85;;
53108;SDS011;39007;53.090;6.074;2022-09-09T05:21:10;15.77;;;10.70;;
53108;SDS011;39007;53.090;6.074;2022-09-09T05:23:36;12.18;;;10.70;;
53108;SDS011;39007;53.090;6.074;2022-09-09T05:26:03;16.52;;;10.55;;
53108;SDS011;39007;53.090;6.074;2022-09-09T05:28:29;17.80;;;12.00;;
53108;SDS011;39007;53.090;6.074;2022-09-09T05:30:59;16.23;;;11.30;;
53108;SDS011;39007;53.090;6.074;2022-09-09T05:33:25;14.00;;;10.27;;
53108;SDS011;39007;53.090;6.074;2022-09-09T05:35:58;16.50;;;11.98;;
53108;SDS011;39007;53.090;6.074;2022-09-09T05:38:25;13.77;;;11.10;;
53108;SDS011;39007;53.090;6.074;2022-09-09T05:40:51;14.68;;;11.32;;
53108;SDS011;39007;53.090;6.074;2022-09-09T05:43:20;13.52;;;11.00;;
53108;SDS011;39007;53.090;6.074;2022-09-09T05:45:47;15.30;;;10.55;;
53108;SDS011;39007;53.090;6.074;2022-09-09T05:48:16;13.85;;;10.35;;
53108;SDS011;39007;53.090;6.074;2022-09-09T05:50:42;13.48;;;9.85;;
53108;SDS011;39007;53.090;6.074;2022-09-09T05:53:10;14.13;;;10.50;;
53108;SDS011;39007;53.090;6.074;2022-09-09T05:55:36;15.55;;;10.32;;
53108;SDS011;39007;53.090;6.074;2022-09-09T05:58:02;11.43;;;9.15;;
53108;SDS011;39007;53.090;6.074;2022-09-09T06:00:29;12.60;;;9.13;;
53108;SDS011;39007;53.090;6.074;2022-09-09T06:02:57;12.95;;;10.15;;
53108;SDS011;39007;53.090;6.074;2022-09-09T06:05:23;14.00;;;9.63;;
53108;SDS011;39007;53.090;6.074;2022-09-09T06:07:52;13.57;;;9.63;;
53108;SDS011;39007;53.090;6.074;2022-09-09T06:10:19;13.15;;;9.80;;
53108;SDS011;39007;53.090;6.074;2022-09-09T06:12:45;14.48;;;10.80;;
53108;SDS011;39007;53.090;6.074;2022-09-09T06:15:11;13.73;;;10.73;;
53108;SDS011;39007;53.090;6.074;2022-09-09T06:17:37;15.30;;;10.45;;
53108;SDS011;39007;53.090;6.074;2022-09-09T06:20:04;16.45;;;10.57;;
53108;SDS011;39007;53.090;6.074;2022-09-09T06:22:30;14.73;;;10.85;;
53108;SDS011;39007;53.090;6.074;2022-09-09T06:24:56;15.18;;;10.50;;
53108;SDS011;39007;53.090;6.074;2022-09-09T06:27:22;14.85;;;11.25;;
53108;SDS011;39007;53.090;6.074;2022-09-09T06:29:48;13.23;;;10.25;;
53108;SDS011;39007;53.090;6.074;2022-09-09T06:32:15;15.77;;;10.45;;
53108;SDS011;39007;53.090;6.074;2022-09-09T06:34:42;14.82;;;11.43;;
53108;SDS011;39007;53.090;6.074;2022-09-09T06:37:08;12.65;;;10.07;;
53108;SDS011;39007;53.090;6.074;2022-09-09T06:39:35;16.23;;;10.75;;
53108;SDS011;39007;53.090;6.074;2022-09-09T06:42:01;14.95;;;10.32;;
53108;SDS011;39007;53.090;6.074;2022-09-09T06:44:27;17.33;;;10.43;;
53108;SDS011;39007;53.090;6.074;2022-09-09T06:46:58;13.75;;;10.50;;
53108;SDS011;39007;53.090;6.074;2022-09-09T06:49:24;13.68;;;10.27;;
53108;SDS011;39007;53.090;6.074;2022-09-09T06:51:50;15.20;;;11.02;;
53108;SDS011;39007;53.090;6.074;2022-09-09T06:54:17;13.50;;;9.93;;
53108;SDS011;39007;53.090;6.074;2022-09-09T06:56:44;13.55;;;9.88;;
53108;SDS011;39007;53.090;6.074;2022-09-09T06:59:11;14.85;;;9.55;;
53108;SDS011;39007;53.090;6.074;2022-09-09T07:01:38;14.45;;;10.07;;
53108;SDS011;39007;53.090;6.074;2022-09-09T07:04:08;14.98;;;9.52;;
53108;SDS011;39007;53.090;6.074;2022-09-09T07:06:42;15.40;;;9.35;;
53108;SDS011;39007;53.090;6.074;2022-09-09T07:09:10;14.57;;;9.48;;
53108;SDS011;39007;53.090;6.074;2022-09-09T07:11:37;15.20;;;9.40;;
53108;SDS011;39007;53.090;6.074;2022-09-09T07:14:04;13.57;;;9.00;;
53108;SDS011;39007;53.090;6.074;2022-09-09T07:16:30;11.48;;;8.90;;
53108;SDS011;39007;53.090;6.074;2022-09-09T07:19:00;13.25;;;8.60;;
53108;SDS011;39007;53.090;6.074;2022-09-09T07:21:28;13.20;;;8.30;;
53108;SDS011;39007;53.090;6.074;2022-09-09T07:23:54;16.23;;;8.82;;
53108;SDS011;39007;53.090;6.074;2022-09-09T07:26:21;12.63;;;8.57;;
53108;SDS011;39007;53.090;6.074;2022-09-09T07:28:49;10.63;;;7.72;;
53108;SDS011;39007;53.090;6.074;2022-09-09T07:31:16;10.85;;;7.18;;
53108;SDS011;39007;53.090;6.074;2022-09-09T07:33:43;11.07;;;7.78;;
53108;SDS011;39007;53.090;6.074;2022-09-09T07:36:13;13.57;;;7.32;;
53108;SDS011;39007;53.090;6.074;2022-09-09T07:38:46;10.10;;;7.68;;
53108;SDS011;39007;53.090;6.074;2022-09-09T07:41:15;9.40;;;6.82;;
53108;SDS011;39007;53.090;6.074;2022-09-09T07:43:42;10.88;;;7.03;;
53108;SDS011;39007;53.090;6.074;2022-09-09T07:46:09;10.52;;;6.95;;
53108;SDS011;39007;53.090;6.074;2022-09-09T07:48:37;13.45;;;7.13;;
53108;SDS011;39007;53.090;6.074;2022-09-09T07:51:07;10.43;;;6.47;;
53108;SDS011;39007;53.090;6.074;2022-09-09T07:53:36;12.85;;;7.05;;
53108;SDS011;39007;53.090;6.074;2022-09-09T07:56:07;11.98;;;6.63;;
53108;SDS011;39007;53.090;6.074;2022-09-09T07:58:34;11.23;;;5.47;;
53108;SDS011;39007;53.090;6.074;2022-09-09T08:01:05;12.32;;;6.65;;
53108;SDS011;39007;53.090;6.074;2022-09-09T08:03:31;12.10;;;5.60;;
53108;SDS011;39007;53.090;6.074;2022-09-09T08:06:00;13.75;;;6.25;;
53108;SDS011;39007;53.090;6.074;2022-09-09T08:08:26;9.27;;;5.85;;
53108;SDS011;39007;53.090;6.074;2022-09-09T08:10:52;10.27;;;5.80;;
53108;SDS011;39007;53.090;6.074;2022-09-09T08:13:18;11.60;;;5.80;;
53108;SDS011;39007;53.090;6.074;2022-09-09T08:15:45;11.18;;;5.93;;
53108;SDS011;39007;53.090;6.074;2022-09-09T08:18:11;10.20;;;5.72;;
53108;SDS011;39007;53.090;6.074;2022-09-09T08:20:37;9.82;;;5.88;;
53108;SDS011;39007;53.090;6.074;2022-09-09T08:23:03;9.65;;;5.57;;
53108;SDS011;39007;53.090;6.074;2022-09-09T08:25:29;12.27;;;5.78;;
53108;SDS011;39007;53.090;6.074;2022-09-09T08:27:56;9.75;;;5.32;;
53108;SDS011;39007;53.090;6.074;2022-09-09T08:30:22;14.43;;;6.05;;
53108;SDS011;39007;53.090;6.074;2022-09-09T08:32:48;10.65;;;6.05;;
53108;SDS011;39007;53.090;6.074;2022-09-09T08:35:16;10.43;;;6.07;;
53108;SDS011;39007;53.090;6.074;2022-09-09T08:37:42;9.52;;;5.85;;
53108;SDS011;39007;53.090;6.074;2022-09-09T08:40:10;11.00;;;5.57;;
53108;SDS011;39007;53.090;6.074;2022-09-09T08:42:46;12.77;;;6.00;;
53108;SDS011;39007;53.090;6.074;2022-09-09T08:45:19;9.65;;;4.72;;
53108;SDS011;39007;53.090;6.074;2022-09-09T08:48:10;9.15;;;4.78;;
53108;SDS011;39007;53.090;6.074;2022-09-09T08:50:38;10.15;;;4.88;;
53108;SDS011;39007;53.090;6.074;2022-09-09T08:55:44;9.18;;;4.15;;
53108;SDS011;39007;53.090;6.074;2022-09-09T08:58:15;12.05;;;4.78;;
53108;SDS011;39007;53.090;6.074;2022-09-09T09:08:57;10.40;;;4.25;;
53108;SDS011;39007;53.090;6.074;2022-09-09T09:11:25;11.65;;;4.13;;
53108;SDS011;39007;53.090;6.074;2022-09-09T09:14:02;13.13;;;4.57;;
53108;SDS011;39007;53.090;6.074;2022-09-09T09:16:31;11.27;;;3.85;;
53108;SDS011;39007;53.090;6.074;2022-09-09T09:18:59;11.25;;;3.90;;
53108;SDS011;39007;53.090;6.074;2022-09-09T09:24:09;11.02;;;3.38;;
53108;SDS011;39007;53.090;6.074;2022-09-09T09:26:40;14.95;;;3.50;;
53108;SDS011;39007;53.090;6.074;2022-09-09T09:29:13;10.90;;;3.47;;
53108;SDS011;39007;53.090;6.074;2022-09-09T09:31:42;14.40;;;3.60;;
53108;SDS011;39007;53.090;6.074;2022-09-09T09:34:09;12.60;;;3.90;;
53108;SDS011;39007;53.090;6.074;2022-09-09T09:36:44;10.20;;;3.15;;
53108;SDS011;39007;53.090;6.074;2022-09-09T09:39:22;9.48;;;3.50;;
53108;SDS011;39007;53.090;6.074;2022-09-09T09:41:49;9.95;;;3.22;;
53108;SDS011;39007;53.090;6.074;2022-09-09T09:44:27;9.90;;;3.30;;
53108;SDS011;39007;53.090;6.074;2022-09-09T09:47:07;14.15;;;3.30;;
53108;SDS011;39007;53.090;6.074;2022-09-09T09:49:33;10.80;;;2.95;;
53108;SDS011;39007;53.090;6.074;2022-09-09T09:52:00;10.05;;;2.88;;
53108;SDS011;39007;53.090;6.074;2022-09-09T09:54:27;10.63;;;2.97;;
53108;SDS011;39007;53.090;6.074;2022-09-09T09:56:54;9.95;;;3.28;;
53108;SDS011;39007;53.090;6.074;2022-09-09T09:59:33;10.48;;;2.72;;
53108;SDS011;39007;53.090;6.074;2022-09-09T10:02:20;8.77;;;2.53;;
53108;SDS011;39007;53.090;6.074;2022-09-09T10:04:48;10.15;;;2.33;;
53108;SDS011;39007;53.090;6.074;2022-09-09T10:07:18;10.20;;;2.70;;
53108;SDS011;39007;53.090;6.074;2022-09-09T10:09:45;10.18;;;2.63;;
53108;SDS011;39007;53.090;6.074;2022-09-09T10:17:36;8.60;;;2.65;;
53108;SDS011;39007;53.090;6.074;2022-09-09T10:22:38;10.77;;;2.50;;
53108;SDS011;39007;53.090;6.074;2022-09-09T10:30:19;10.50;;;2.35;;
53108;SDS011;39007;53.090;6.074;2022-09-09T10:32:53;8.13;;;2.60;;
53108;SDS011;39007;53.090;6.074;2022-09-09T10:35:30;12.63;;;2.53;;
53108;SDS011;39007;53.090;6.074;2022-09-09T10:43:36;7.50;;;2.22;;
53108;SDS011;39007;53.090;6.074;2022-09-09T10:48:50;9.43;;;2.38;;
53108;SDS011;39007;53.090;6.074;2022-09-09T10:56:12;10.05;;;2.65;;
53108;SDS011;39007;53.090;6.074;2022-09-09T11:01:12;9.90;;;2.42;;
53108;SDS011;39007;53.090;6.074;2022-09-09T11:03:41;11.60;;;2.80;;
53108;SDS011;39007;53.090;6.074;2022-09-09T11:06:13;9.35;;;2.22;;
53108;SDS011;39007;53.090;6.074;2022-09-09T11:08:40;7.47;;;2.35;;
53108;SDS011;39007;53.090;6.074;2022-09-09T11:13:41;10.65;;;2.28;;
53108;SDS011;39007;53.090;6.074;2022-09-09T11:18:38;7.38;;;2.20;;
53108;SDS011;39007;53.090;6.074;2022-09-09T11:21:07;10.13;;;2.22;;
53108;SDS011;39007;53.090;6.074;2022-09-09T11:23:42;8.13;;;2.22;;
53108;SDS011;39007;53.090;6.074;2022-09-09T11:26:11;10.10;;;1.98;;
53108;SDS011;39007;53.090;6.074;2022-09-09T11:38:50;8.40;;;2.20;;
53108;SDS011;39007;53.090;6.074;2022-09-09T11:41:16;6.63;;;1.95;;
53108;SDS011;39007;53.090;6.074;2022-09-09T11:43:44;11.38;;;2.50;;
53108;SDS011;39007;53.090;6.074;2022-09-09T11:46:14;10.15;;;2.10;;
53108;SDS011;39007;53.090;6.074;2022-09-09T11:48:45;9.75;;;2.38;;
53108;SDS011;39007;53.090;6.074;2022-09-09T11:51:25;11.73;;;2.60;;
53108;SDS011;39007;53.090;6.074;2022-09-09T12:01:35;9.25;;;2.67;;
53108;SDS011;39007;53.090;6.074;2022-09-09T12:04:06;12.40;;;2.50;;
53108;SDS011;39007;53.090;6.074;2022-09-09T12:06:42;9.32;;;2.63;;
53108;SDS011;39007;53.090;6.074;2022-09-09T12:11:39;11.32;;;2.47;;
53108;SDS011;39007;53.090;6.074;2022-09-09T12:14:18;12.38;;;2.60;;
53108;SDS011;39007;53.090;6.074;2022-09-09T12:16:44;12.68;;;2.90;;
53108;SDS011;39007;53.090;6.074;2022-09-09T12:24:47;10.55;;;2.72;;
53108;SDS011;39007;53.090;6.074;2022-09-09T12:27:24;10.60;;;2.80;;
53108;SDS011;39007;53.090;6.074;2022-09-09T12:29:57;10.30;;;2.47;;
53108;SDS011;39007;53.090;6.074;2022-09-09T12:32:27;10.32;;;2.90;;
53108;SDS011;39007;53.090;6.074;2022-09-09T12:35:02;24.98;;;3.97;;
53108;SDS011;39007;53.090;6.074;2022-09-09T12:37:52;10.68;;;2.72;;
53108;SDS011;39007;53.090;6.074;2022-09-09T12:40:25;9.77;;;2.80;;
53108;SDS011;39007;53.090;6.074;2022-09-09T12:42:51;11.85;;;2.83;;
53108;SDS011;39007;53.090;6.074;2022-09-09T12:45:23;11.00;;;2.80;;
53108;SDS011;39007;53.090;6.074;2022-09-09T12:47:56;8.80;;;2.65;;
53108;SDS011;39007;53.090;6.074;2022-09-09T12:50:26;9.88;;;2.35;;
53108;SDS011;39007;53.090;6.074;2022-09-09T12:52:54;9.70;;;2.30;;
53108;SDS011;39007;53.090;6.074;2022-09-09T12:55:23;8.88;;;2.25;;
53108;SDS011;39007;53.090;6.074;2022-09-09T12:57:50;9.23;;;2.05;;
53108;SDS011;39007;53.090;6.074;2022-09-09T13:00:23;8.57;;;2.10;;
53108;SDS011;39007;53.090;6.074;2022-09-09T13:02:51;9.23;;;2.33;;
53108;SDS011;39007;53.090;6.074;2022-09-09T13:05:28;12.02;;;2.30;;
53108;SDS011;39007;53.090;6.074;2022-09-09T13:08:04;11.20;;;2.20;;
53108;SDS011;39007;53.090;6.074;2022-09-09T13:10:32;10.27;;;2.45;;
53108;SDS011;39007;53.090;6.074;2022-09-09T13:12:59;14.15;;;3.10;;
53108;SDS011;39007;53.090;6.074;2022-09-09T13:15:26;8.80;;;2.10;;
53108;SDS011;39007;53.090;6.074;2022-09-09T13:17:54;6.97;;;2.25;;
53108;SDS011;39007;53.090;6.074;2022-09-09T13:20:21;8.43;;;2.50;;
53108;SDS011;39007;53.090;6.074;2022-09-09T13:22:48;8.05;;;2.40;;
53108;SDS011;39007;53.090;6.074;2022-09-09T13:25:20;11.80;;;2.95;;
53108;SDS011;39007;53.090;6.074;2022-09-09T13:30:25;10.03;;;3.03;;
53108;SDS011;39007;53.090;6.074;2022-09-09T13:35:47;9.38;;;2.67;;
53108;SDS011;39007;53.090;6.074;2022-09-09T13:38:14;10.02;;;2.72;;
53108;SDS011;39007;53.090;6.074;2022-09-09T13:40:40;8.80;;;2.80;;
53108;SDS011;39007;53.090;6.074;2022-09-09T13:43:19;8.93;;;2.50;;
53108;SDS011;39007;53.090;6.074;2022-09-09T13:45:59;11.80;;;2.50;;
53108;SDS011;39007;53.090;6.074;2022-09-09T13:48:26;8.02;;;2.35;;
53108;SDS011;39007;53.090;6.074;2022-09-09T13:51:03;7.28;;;2.05;;
53108;SDS011;39007;53.090;6.074;2022-09-09T13:53:30;6.60;;;1.80;;
53108;SDS011;39007;53.090;6.074;2022-09-09T13:55:57;6.53;;;1.70;;
53108;SDS011;39007;53.090;6.074;2022-09-09T13:58:23;6.93;;;2.28;;
53108;SDS011;39007;53.090;6.074;2022-09-09T14:00:50;6.00;;;1.73;;
53108;SDS011;39007;53.090;6.074;2022-09-09T14:03:17;9.45;;;1.90;;
53108;SDS011;39007;53.090;6.074;2022-09-09T14:05:43;6.97;;;1.90;;
53108;SDS011;39007;53.090;6.074;2022-09-09T14:08:13;7.18;;;1.65;;
53108;SDS011;39007;53.090;6.074;2022-09-09T14:10:40;5.82;;;1.88;;
53108;SDS011;39007;53.090;6.074;2022-09-09T14:13:06;9.45;;;2.17;;
53108;SDS011;39007;53.090;6.074;2022-09-09T14:15:33;6.80;;;2.33;;
53108;SDS011;39007;53.090;6.074;2022-09-09T14:17:59;8.05;;;2.00;;
53108;SDS011;39007;53.090;6.074;2022-09-09T14:20:25;7.60;;;2.15;;
53108;SDS011;39007;53.090;6.074;2022-09-09T14:22:51;6.57;;;1.65;;
53108;SDS011;39007;53.090;6.074;2022-09-09T14:25:18;5.68;;;1.85;;
53108;SDS011;39007;53.090;6.074;2022-09-09T14:27:44;5.75;;;1.65;;
53108;SDS011;39007;53.090;6.074;2022-09-09T14:30:11;9.90;;;1.85;;
53108;SDS011;39007;53.090;6.074;2022-09-09T14:32:37;5.72;;;1.90;;
53108;SDS011;39007;53.090;6.074;2022-09-09T14:35:03;6.50;;;1.77;;
53108;SDS011;39007;53.090;6.074;2022-09-09T14:37:30;5.40;;;1.70;;
53108;SDS011;39007;53.090;6.074;2022-09-09T14:39:56;4.88;;;1.63;;
53108;SDS011;39007;53.090;6.074;2022-09-09T14:42:22;7.50;;;1.83;;
53108;SDS011;39007;53.090;6.074;2022-09-09T14:44:48;6.03;;;1.80;;
53108;SDS011;39007;53.090;6.074;2022-09-09T14:47:14;9.65;;;2.17;;
53108;SDS011;39007;53.090;6.074;2022-09-09T14:49:41;6.93;;;1.80;;
53108;SDS011;39007;53.090;6.074;2022-09-09T14:52:07;6.18;;;2.00;;
53108;SDS011;39007;53.090;6.074;2022-09-09T14:54:34;8.65;;;2.20;;
53108;SDS011;39007;53.090;6.074;2022-09-09T14:57:00;8.43;;;2.20;;
53108;SDS011;39007;53.090;6.074;2022-09-09T14:59:26;10.75;;;2.70;;
53108;SDS011;39007;53.090;6.074;2022-09-09T15:01:52;8.10;;;2.30;;
53108;SDS011;39007;53.090;6.074;2022-09-09T15:04:18;7.65;;;2.30;;
53108;SDS011;39007;53.090;6.074;2022-09-09T15:06:45;9.18;;;2.67;;
53108;SDS011;39007;53.090;6.074;2022-09-09T15:09:13;6.38;;;1.60;;
53108;SDS011;39007;53.090;6.074;2022-09-09T15:11:39;5.32;;;1.70;;
53108;SDS011;39007;53.090;6.074;2022-09-09T15:14:06;3.70;;;1.40;;
53108;SDS011;39007;53.090;6.074;2022-09-09T15:16:33;6.30;;;1.83;;
53108;SDS011;39007;53.090;6.074;2022-09-09T15:19:00;17.38;;;2.20;;
53108;SDS011;39007;53.090;6.074;2022-09-09T15:21:28;7.25;;;1.85;;
53108;SDS011;39007;53.090;6.074;2022-09-09T15:23:55;6.28;;;1.92;;
53108;SDS011;39007;53.090;6.074;2022-09-09T15:26:21;5.95;;;2.13;;
53108;SDS011;39007;53.090;6.074;2022-09-09T15:28:47;6.35;;;2.50;;
53108;SDS011;39007;53.090;6.074;2022-09-09T15:31:21;6.95;;;2.22;;
53108;SDS011;39007;53.090;6.074;2022-09-09T15:33:52;5.53;;;1.90;;
53108;SDS011;39007;53.090;6.074;2022-09-09T15:36:19;7.03;;;2.30;;
53108;SDS011;39007;53.090;6.074;2022-09-09T15:38:46;7.47;;;2.30;;
53108;SDS011;39007;53.090;6.074;2022-09-09T15:41:12;10.68;;;2.40;;
53108;SDS011;39007;53.090;6.074;2022-09-09T15:43:39;4.75;;;2.03;;
53108;SDS011;39007;53.090;6.074;2022-09-09T15:46:31;8.05;;;2.28;;
53108;SDS011;39007;53.090;6.074;2022-09-09T15:49:02;6.70;;;2.30;;
53108;SDS011;39007;53.090;6.074;2022-09-09T15:51:28;6.72;;;2.50;;
53108;SDS011;39007;53.090;6.074;2022-09-09T15:53:55;4.88;;;1.90;;
53108;SDS011;39007;53.090;6.074;2022-09-09T15:56:22;4.80;;;2.05;;
53108;SDS011;39007;53.090;6.074;2022-09-09T15:58:48;7.88;;;2.33;;
53108;SDS011;39007;53.090;6.074;2022-09-09T16:01:14;6.07;;;2.03;;
53108;SDS011;39007;53.090;6.074;2022-09-09T16:03:42;5.15;;;2.08;;
53108;SDS011;39007;53.090;6.074;2022-09-09T16:06:11;5.15;;;2.05;;
53108;SDS011;39007;53.090;6.074;2022-09-09T16:08:38;7.88;;;2.28;;
53108;SDS011;39007;53.090;6.074;2022-09-09T16:11:08;6.53;;;2.00;;
53108;SDS011;39007;53.090;6.074;2022-09-09T16:13:38;7.05;;;1.92;;
53108;SDS011;39007;53.090;6.074;2022-09-09T16:16:05;6.00;;;2.10;;
53108;SDS011;39007;53.090;6.074;2022-09-09T16:21:25;7.10;;;2.38;;
53108;SDS011;39007;53.090;6.074;2022-09-09T16:23:52;7.75;;;2.50;;
53108;SDS011;39007;53.090;6.074;2022-09-09T16:26:19;8.75;;;2.38;;
53108;SDS011;39007;53.090;6.074;2022-09-09T16:28:45;5.18;;;2.33;;
53108;SDS011;39007;53.090;6.074;2022-09-09T16:31:16;8.05;;;2.60;;
53108;SDS011;39007;53.090;6.074;2022-09-09T16:33:42;5.70;;;2.42;;
53108;SDS011;39007;53.090;6.074;2022-09-09T16:36:10;6.30;;;2.33;;
53108;SDS011;39007;53.090;6.074;2022-09-09T16:38:37;8.23;;;2.90;;
53108;SDS011;39007;53.090;6.074;2022-09-09T16:41:03;5.93;;;2.40;;
53108;SDS011;39007;53.090;6.074;2022-09-09T16:43:31;7.22;;;2.90;;
53108;SDS011;39007;53.090;6.074;2022-09-09T16:45:57;6.05;;;2.38;;
53108;SDS011;39007;53.090;6.074;2022-09-09T16:48:25;6.60;;;2.55;;
53108;SDS011;39007;53.090;6.074;2022-09-09T16:50:52;7.15;;;2.70;;
53108;SDS011;39007;53.090;6.074;2022-09-09T16:53:18;5.88;;;2.65;;